OJAM/ADJ METAR and TAF weather

Enter ICAO airport designator
Station Type Date Time Source
OJAM METAR 2022/05/25 01:00 UTC NOAA

OJAM 250100Z 00000KT CAVOK 18/07 Q1017 NOSIG


Station Type Date Time Source
OJAM Decoded METAR 2022/05/25 01:00 UTC NOAA

Amman Airport, Jordan (OJAM) 31-59N 035-59E 768M
May 24, 2022 - 09:00 PM EDT / 2022.05.25 0100 UTC
Wind: Calm:0
Visibility: greater than 7 mile(s):0
Temperature: 64 F (18 C)
Dew Point: 44 F (7 C)
Relative Humidity: 48%
Pressure (altimeter): 30.03 in. Hg (1017 hPa)
ob: OJAM 250100Z 00000KT CAVOK 18/07 Q1017 NOSIG
cycle: 1

Station Type Date Time Source
OJAM TAF 2022/05/24 18:56 UTC NOAA

TAF OJAM 241700Z 2418/2524 28010KT 5000 HZ NSC

Example: see airport list